createdAt,value
2022-11-06T00:01:16.614Z,36.60
2022-11-06T00:04:18.473Z,33.30
2022-11-06T00:07:20.651Z,34.40
2022-11-06T00:10:23.497Z,33.07
2022-11-06T00:13:25.981Z,32.37
2022-11-06T00:16:28.345Z,32.73
2022-11-06T00:19:30.563Z,32.33
2022-11-06T00:22:33.987Z,30.80
2022-11-06T00:25:40.229Z,29.83
2022-11-06T00:28:42.471Z,28.87
2022-11-06T00:31:44.695Z,29.60
2022-11-06T00:34:47.736Z,29.03
2022-11-06T00:37:50.023Z,28.57
2022-11-06T00:40:51.883Z,27.70
2022-11-06T00:43:57.280Z,26.80
2022-11-06T00:46:59.183Z,24.30
2022-11-06T00:50:01.493Z,26.57
2022-11-06T00:53:03.368Z,25.63
2022-11-06T00:56:17.205Z,25.37
2022-11-06T00:59:19.064Z,24.30
2022-11-06T01:02:21.378Z,25.77
2022-11-06T01:05:23.342Z,25.07
2022-11-06T01:08:25.509Z,26.13
2022-11-06T01:11:59.183Z,25.60
2022-11-06T01:14:58.842Z,25.73
2022-11-06T01:18:00.782Z,26.13
2022-11-06T01:21:08.118Z,26.50
2022-11-06T01:24:18.480Z,26.70
2022-11-06T01:27:26.431Z,25.50
2022-11-06T01:30:29.072Z,25.40
2022-11-06T01:33:31.483Z,26.47
2022-11-06T01:36:33.697Z,26.73
2022-11-06T01:39:35.847Z,26.73
2022-11-06T01:42:37.735Z,27.20
2022-11-06T01:45:40.874Z,27.47
2022-11-06T01:48:47.567Z,28.37
2022-11-06T01:51:59.951Z,26.33
2022-11-06T01:55:19.588Z,27.70
2022-11-06T01:58:23.666Z,26.33
2022-11-06T02:01:25.637Z,27.60
2022-11-06T02:04:40.606Z,29.87
2022-11-06T02:07:43.838Z,30.30
2022-11-06T02:10:46.662Z,29.50
2022-11-06T02:14:10.247Z,29.37
2022-11-06T02:17:42.102Z,29.93
2022-11-06T02:20:56.950Z,30.57
2022-11-06T02:24:04.978Z,29.93
2022-11-06T02:27:20.116Z,29.07
2022-11-06T02:30:22.422Z,27.77
2022-11-06T02:33:33.453Z,27.60
2022-11-06T02:36:55.123Z,27.00
2022-11-06T02:40:00.369Z,27.07
2022-11-06T02:43:09.141Z,26.13
2022-11-06T02:46:20.304Z,24.63
2022-11-06T02:49:34.476Z,24.20
2022-11-06T02:52:48.043Z,24.27
2022-11-06T02:55:53.908Z,22.80
2022-11-06T02:59:02.658Z,25.90
2022-11-06T03:02:10.369Z,24.80
2022-11-06T03:05:21.772Z,25.83
2022-11-06T03:08:43.549Z,25.30
2022-11-06T03:11:51.571Z,23.33
2022-11-06T03:15:06.591Z,24.30
2022-11-06T03:18:33.513Z,22.70
2022-11-06T03:21:57.099Z,24.73
2022-11-06T03:25:19.082Z,25.27
2022-11-06T03:28:32.048Z,23.47
2022-11-06T03:31:39.269Z,27.00
2022-11-06T03:35:07.356Z,23.73
2022-11-06T03:38:20.507Z,22.13
2022-11-06T03:41:33.661Z,22.80
2022-11-06T03:44:44.367Z,24.43
2022-11-06T03:48:03.433Z,22.07
2022-11-06T03:51:20.047Z,22.50
2022-11-06T03:54:31.053Z,23.23
2022-11-06T03:57:45.034Z,22.63
2022-11-06T04:00:48.272Z,21.23
2022-11-06T04:03:58.331Z,21.10
2022-11-06T04:07:05.805Z,22.13
2022-11-06T04:10:29.719Z,20.93
2022-11-06T04:13:53.729Z,20.93
2022-11-06T04:17:01.054Z,17.93
2022-11-06T04:20:08.305Z,18.47
2022-11-06T04:23:36.651Z,17.67
2022-11-06T04:27:01.790Z,17.80
2022-11-06T04:30:11.860Z,18.33
2022-11-06T04:33:31.085Z,18.00
2022-11-06T04:36:44.891Z,20.27
2022-11-06T04:39:46.974Z,19.07
2022-11-06T04:43:07.893Z,20.13
2022-11-06T04:46:13.951Z,18.70
2022-11-06T04:49:16.500Z,17.87
2022-11-06T04:52:23.351Z,18.63
2022-11-06T04:55:26.111Z,19.93
2022-11-06T04:58:28.332Z,19.47
2022-11-06T05:01:30.506Z,18.80
2022-11-06T05:04:33.687Z,19.50
2022-11-06T05:07:35.632Z,19.50
2022-11-06T05:10:37.748Z,18.67
2022-11-06T05:13:39.624Z,20.17
2022-11-06T05:16:41.988Z,19.10
2022-11-06T05:19:43.817Z,19.70
2022-11-06T05:22:58.312Z,18.80
2022-11-06T05:26:00.141Z,19.83
2022-11-06T05:29:02.362Z,18.50
2022-11-06T05:32:04.507Z,19.77
2022-11-06T05:35:06.978Z,19.23
2022-11-06T05:38:08.809Z,19.37
2022-11-06T05:41:11.041Z,18.17
2022-11-06T05:44:12.957Z,18.63
2022-11-06T05:47:15.161Z,20.20
2022-11-06T05:50:17.275Z,19.83
2022-11-06T05:53:19.430Z,20.13
2022-11-06T05:56:21.303Z,17.53
2022-11-06T05:59:23.590Z,16.60
2022-11-06T06:02:25.868Z,16.90
2022-11-06T06:05:28.136Z,16.77
2022-11-06T06:08:30.024Z,17.97
2022-11-06T06:11:32.209Z,16.40
2022-11-06T06:14:34.098Z,17.63
2022-11-06T06:17:36.292Z,17.97
2022-11-06T06:20:38.269Z,17.97
2022-11-06T06:23:41.530Z,18.37
2022-11-06T06:26:43.585Z,19.23
2022-11-06T06:29:46.019Z,16.43
2022-11-06T06:32:47.949Z,16.47
2022-11-06T06:35:50.815Z,15.80
2022-11-06T06:38:52.887Z,16.07
2022-11-06T06:41:55.049Z,17.37
2022-11-06T06:44:57.021Z,15.87
2022-11-06T06:48:06.574Z,15.33
2022-11-06T06:51:09.029Z,17.73
2022-11-06T06:54:11.239Z,16.97
2022-11-06T06:57:13.137Z,15.33
2022-11-06T07:00:15.843Z,13.00
2022-11-06T07:03:17.985Z,13.83
2022-11-06T07:06:20.498Z,14.17
2022-11-06T07:09:26.248Z,13.60
2022-11-06T07:12:28.490Z,13.90
2022-11-06T07:15:30.881Z,12.27
2022-11-06T07:18:34.013Z,12.83
2022-11-06T07:21:35.882Z,12.43
2022-11-06T07:24:38.196Z,12.47
2022-11-06T07:27:41.409Z,12.50
2022-11-06T07:30:43.578Z,12.73
2022-11-06T07:33:45.419Z,11.27
2022-11-06T07:36:47.521Z,13.03
2022-11-06T07:39:49.395Z,12.83
2022-11-06T07:42:51.563Z,13.53
2022-11-06T07:45:53.385Z,11.60
2022-11-06T07:48:55.575Z,10.40
2022-11-06T07:51:57.459Z,9.83
2022-11-06T07:55:00.061Z,9.33
2022-11-06T07:58:02.066Z,9.30
2022-11-06T08:01:04.590Z,9.47
2022-11-06T08:04:06.533Z,8.90
2022-11-06T08:07:09.109Z,9.20
2022-11-06T08:10:11.047Z,8.77
2022-11-06T08:13:15.924Z,9.53
2022-11-06T08:16:17.881Z,8.77
2022-11-06T08:19:20.029Z,9.10
2022-11-06T08:22:21.934Z,9.00
2022-11-06T08:25:24.073Z,9.67
2022-11-06T08:28:26.660Z,9.47
2022-11-06T08:31:29.838Z,9.83
2022-11-06T08:34:34.158Z,10.87
2022-11-06T08:37:36.681Z,10.30
2022-11-06T08:40:39.782Z,10.70
2022-11-06T08:43:42.101Z,9.90
2022-11-06T08:46:49.352Z,10.07
2022-11-06T08:49:56.094Z,8.50
2022-11-06T08:53:04.047Z,9.00
2022-11-06T08:56:06.944Z,8.50
2022-11-06T08:59:09.003Z,8.30
2022-11-06T09:02:13.573Z,8.00
2022-11-06T09:05:15.606Z,8.33
2022-11-06T09:08:17.863Z,8.87
2022-11-06T09:11:19.759Z,9.03
2022-11-06T09:14:22.063Z,8.90
2022-11-06T09:17:24.439Z,8.70
2022-11-06T09:20:27.212Z,8.80
2022-11-06T09:23:29.171Z,8.73
2022-11-06T09:26:31.365Z,7.90
2022-11-06T09:29:33.279Z,8.50
2022-11-06T09:32:35.398Z,7.33
2022-11-06T09:35:37.313Z,7.60
2022-11-06T09:38:39.582Z,7.27
2022-11-06T09:41:58.176Z,7.53
2022-11-06T09:45:12.865Z,7.27
2022-11-06T09:48:41.958Z,7.23
2022-11-06T09:51:53.274Z,7.50
2022-11-06T09:55:04.567Z,6.90
2022-11-06T09:58:13.991Z,7.30
2022-11-06T10:01:27.058Z,7.03
2022-11-06T10:04:38.383Z,7.00
2022-11-06T10:07:42.466Z,6.70
2022-11-06T10:11:06.625Z,6.83
2022-11-06T10:14:15.233Z,6.47
2022-11-06T10:17:26.541Z,6.60
2022-11-06T10:20:33.476Z,6.83
2022-11-06T10:23:50.899Z,6.00
2022-11-06T10:26:56.391Z,6.27
2022-11-06T10:30:04.815Z,5.80
2022-11-06T10:33:29.385Z,5.83
2022-11-06T10:37:12.944Z,6.27
2022-11-06T10:40:19.753Z,6.77
2022-11-06T10:43:32.070Z,6.40
2022-11-06T10:46:36.462Z,6.70
2022-11-06T10:49:46.179Z,5.60
2022-11-06T10:52:58.559Z,6.40
2022-11-06T10:56:25.146Z,6.20
2022-11-06T10:59:27.921Z,5.80
2022-11-06T11:02:40.890Z,7.47
2022-11-06T11:05:44.301Z,7.00
2022-11-06T11:08:51.007Z,6.20
2022-11-06T11:11:52.845Z,5.97
2022-11-06T11:15:17.429Z,6.27
2022-11-06T11:18:31.677Z,6.37
2022-11-06T11:21:34.647Z,5.83
2022-11-06T11:24:36.570Z,6.20
2022-11-06T11:27:44.464Z,5.47
2022-11-06T11:30:52.187Z,5.73
2022-11-06T11:33:56.676Z,6.77
2022-11-06T11:37:03.291Z,5.90
2022-11-06T11:40:36.324Z,5.50
2022-11-06T11:43:39.047Z,5.00
2022-11-06T11:46:48.860Z,4.73
2022-11-06T11:49:50.879Z,5.00
2022-11-06T11:52:58.378Z,4.93
2022-11-06T11:56:00.547Z,5.80
2022-11-06T11:59:04.406Z,5.87
2022-11-06T12:02:28.389Z,5.10
2022-11-06T12:05:40.665Z,5.30
2022-11-06T12:08:52.205Z,4.93
2022-11-06T12:11:56.406Z,5.00
2022-11-06T12:15:23.078Z,5.90
2022-11-06T12:18:43.794Z,5.23
2022-11-06T12:21:51.962Z,4.97
2022-11-06T12:25:25.754Z,4.93
2022-11-06T12:28:30.820Z,4.53
2022-11-06T12:31:33.497Z,5.00
2022-11-06T12:34:45.130Z,4.73
2022-11-06T12:38:19.718Z,4.43
2022-11-06T12:41:27.692Z,4.73
2022-11-06T12:44:29.870Z,5.43
2022-11-06T12:47:57.619Z,4.27
2022-11-06T12:51:17.145Z,5.07
2022-11-06T12:54:56.813Z,4.87
2022-11-06T12:58:11.472Z,6.00
2022-11-06T13:01:53.601Z,6.37
2022-11-06T13:05:34.996Z,5.20
2022-11-06T13:09:20.973Z,5.10
2022-11-06T13:12:44.340Z,5.10
2022-11-06T13:16:15.578Z,5.57
2022-11-06T13:19:59.970Z,5.63
2022-11-06T13:23:31.740Z,4.77
2022-11-06T13:27:21.825Z,4.83
2022-11-06T13:30:27.049Z,5.27
2022-11-06T13:34:01.432Z,5.27
2022-11-06T13:37:12.594Z,5.63
2022-11-06T13:40:40.184Z,4.90
2022-11-06T13:43:53.895Z,5.03
2022-11-06T13:47:11.743Z,5.10
2022-11-06T13:50:31.642Z,5.70
2022-11-06T17:32:42.870Z,15.70
2022-11-06T17:35:48.049Z,16.27
2022-11-06T17:38:50.113Z,17.17
2022-11-06T17:41:56.319Z,17.70
2022-11-06T17:44:58.282Z,17.03
2022-11-06T17:48:04.045Z,17.97
2022-11-06T17:51:24.777Z,16.47
2022-11-06T17:54:39.303Z,17.47
2022-11-06T17:57:43.127Z,17.57
2022-11-06T18:00:48.118Z,18.83
2022-11-06T18:03:50.325Z,17.87
2022-11-06T18:06:53.539Z,17.53
2022-11-06T18:09:55.405Z,18.40
2022-11-06T18:12:57.622Z,19.00
2022-11-06T18:16:00.005Z,21.20
2022-11-06T18:19:06.006Z,20.47
2022-11-06T18:22:07.996Z,21.47
2022-11-06T18:25:14.638Z,22.30
2022-11-06T18:28:16.764Z,21.87
2022-11-06T18:31:19.975Z,20.60
2022-11-06T18:34:24.706Z,20.63
2022-11-06T18:37:27.037Z,21.10
2022-11-06T18:40:29.190Z,20.77
2022-11-06T18:43:31.557Z,22.57
2022-11-06T18:46:33.539Z,22.10
2022-11-06T18:49:36.047Z,21.43
2022-11-06T18:52:57.061Z,21.63
2022-11-06T18:56:00.578Z,21.70
2022-11-06T18:59:03.095Z,19.83
2022-11-06T19:02:05.457Z,20.97
2022-11-06T19:05:07.839Z,20.33
2022-11-06T19:08:10.401Z,18.93
2022-11-06T19:11:15.272Z,20.33
2022-11-06T19:14:17.606Z,21.17
2022-11-06T19:17:19.458Z,19.53
2022-11-06T19:20:23.322Z,19.67
2022-11-06T19:23:25.699Z,19.63
2022-11-06T19:26:32.097Z,19.97
2022-11-06T19:29:35.426Z,19.83
2022-11-06T19:32:37.698Z,19.00
2022-11-06T19:35:42.666Z,20.07
2022-11-06T19:38:45.170Z,19.47
2022-11-06T19:41:47.276Z,18.40
2022-11-06T19:44:49.674Z,18.97
2022-11-06T19:47:51.711Z,18.27
2022-11-06T19:51:00.080Z,18.17
2022-11-06T19:54:02.461Z,18.93
2022-11-06T19:57:28.169Z,17.50
2022-11-06T20:00:26.591Z,18.03
2022-11-06T20:03:28.977Z,18.50
2022-11-06T20:06:31.162Z,18.97
2022-11-06T20:09:34.479Z,18.37
2022-11-06T20:12:36.401Z,17.97
2022-11-06T20:15:39.301Z,17.10
2022-11-06T20:18:42.731Z,17.97
2022-11-06T20:21:44.954Z,16.93
2022-11-06T20:24:46.933Z,19.93
2022-11-06T20:27:49.362Z,17.73
2022-11-06T20:30:52.562Z,17.80
2022-11-06T20:33:57.636Z,17.87
2022-11-06T20:36:59.506Z,17.73
2022-11-06T20:40:01.665Z,17.93
2022-11-06T20:43:04.302Z,17.37
2022-11-06T20:46:07.134Z,18.07
2022-11-06T20:49:09.114Z,17.17
2022-11-06T20:52:14.162Z,17.10
2022-11-06T20:55:16.972Z,17.33
2022-11-06T20:58:19.166Z,18.00
2022-11-06T21:01:31.247Z,17.07
2022-11-06T21:04:33.593Z,17.43
2022-11-06T21:07:35.549Z,17.33
2022-11-06T21:10:37.760Z,17.07
2022-11-06T21:13:40.957Z,16.67
2022-11-06T21:16:43.320Z,16.63
2022-11-06T21:19:45.646Z,15.73
2022-11-06T21:22:47.815Z,16.63
2022-11-06T21:25:50.813Z,14.70
2022-11-06T21:28:53.170Z,14.37
2022-11-06T21:31:55.101Z,14.93
2022-11-06T21:34:57.268Z,13.67
2022-11-06T21:37:59.168Z,14.63
2022-11-06T21:41:05.153Z,15.90
